Time;durP1;ratioP1;P1;durP2;ratioP2;P2;SDS_P1;SDS_P2;PMS_P1;PMS_P2;Temp;Humidity;BMP_temperature;BMP_pressure;BME280_temperature;BME280_humidity;BME280_pressure;Samples;Min_cycle;Max_cycle;Signal;HPM_P1;HPM_P2
2023/02/24 00:00:31;;;;;;;10.82;5.90;;;;;;;;;;4873944;29;20040;-77
2023/02/24 00:03:09;;;;;;;9.88;5.20;;;;;;;;;;4871451;29;20033;-77
2023/02/24 00:05:38;;;;;;;9.82;5.95;;;;;;;;;;4879444;29;20029;-77
2023/02/24 00:08:04;;;;;;;10.30;5.70;;;;;;;;;;4880183;29;20032;-77
2023/02/24 00:10:31;;;;;;;13.70;5.80;;;;;;;;;;4890596;29;20029;-76
2023/02/24 00:12:58;;;;;;;14.38;5.60;;;;;;;;;;4871720;29;20021;-77
2023/02/24 00:15:24;;;;;;;10.77;5.30;;;;;;;;;;4858508;29;20040;-79
2023/02/24 00:17:50;;;;;;;9.95;6.57;;;;;;;;;;4872218;29;20049;-77
2023/02/24 00:20:17;;;;;;;11.23;5.53;;;;;;;;;;4875128;29;20033;-78
2023/02/24 00:22:44;;;;;;;10.98;5.05;;;;;;;;;;4887657;29;20111;-78
2023/02/24 00:25:13;;;;;;;11.63;5.28;;;;;;;;;;4884037;29;20491;-77
2023/02/24 00:27:39;;;;;;;8.75;5.90;;;;;;;;;;4880566;29;20032;-79
2023/02/24 00:30:06;;;;;;;12.48;7.55;;;;;;;;;;4877467;29;20060;-79
2023/02/24 00:32:34;;;;;;;11.30;5.00;;;;;;;;;;4866299;29;20487;-78
2023/02/24 00:35:00;;;;;;;9.10;5.47;;;;;;;;;;4874588;29;20121;-79
2023/02/24 00:37:28;;;;;;;14.30;5.50;;;;;;;;;;4876296;29;20025;-79
2023/02/24 00:39:57;;;;;;;16.73;6.25;;;;;;;;;;4866223;29;20094;-79
2023/02/24 00:42:24;;;;;;;10.57;4.70;;;;;;;;;;4886854;29;20033;-79
2023/02/24 00:44:52;;;;;;;13.20;5.40;;;;;;;;;;4888652;29;20029;-77
2023/02/24 00:47:19;;;;;;;12.30;5.18;;;;;;;;;;4875259;29;20496;-77
2023/02/24 00:49:45;;;;;;;10.25;5.18;;;;;;;;;;4877031;29;20033;-76
2023/02/24 00:52:13;;;;;;;10.90;4.43;;;;;;;;;;4886750;29;20040;-77
2023/02/24 00:54:40;;;;;;;12.32;4.55;;;;;;;;;;4876659;29;20037;-76
2023/02/24 00:57:09;;;;;;;10.15;4.22;;;;;;;;;;4893519;29;20037;-76
2023/02/24 00:59:35;;;;;;;13.38;5.20;;;;;;;;;;4883398;29;20025;-78
2023/02/24 01:02:02;;;;;;;14.00;4.40;;;;;;;;;;4871505;29;20104;-79
2023/02/24 01:04:28;;;;;;;12.40;4.55;;;;;;;;;;4870843;29;20037;-76
2023/02/24 01:07:02;;;;;;;12.32;4.97;;;;;;;;;;4883771;29;20159;-78
2023/02/24 01:09:29;;;;;;;12.95;4.65;;;;;;;;;;4875607;29;20025;-77
2023/02/24 01:14:40;;;;;;;10.13;4.13;;;;;;;;;;4875208;29;20036;-78
2023/02/24 01:17:07;;;;;;;11.40;4.28;;;;;;;;;;4871796;29;20352;-79
2023/02/24 01:19:34;;;;;;;9.25;4.30;;;;;;;;;;4873100;29;20032;-79
2023/02/24 01:22:02;;;;;;;18.45;5.22;;;;;;;;;;4864616;29;20034;-77
2023/02/24 01:24:28;;;;;;;7.07;3.85;;;;;;;;;;4867465;29;20029;-78
2023/02/24 01:26:56;;;;;;;9.00;4.60;;;;;;;;;;4867845;29;20044;-79
2023/02/24 01:29:22;;;;;;;17.15;4.55;;;;;;;;;;4881474;29;20376;-79
2023/02/24 01:31:49;;;;;;;11.20;4.18;;;;;;;;;;4894827;29;20037;-78
2023/02/24 01:34:15;;;;;;;7.53;4.18;;;;;;;;;;4881227;29;20110;-77
2023/02/24 01:36:42;;;;;;;11.60;3.97;;;;;;;;;;4870437;29;20631;-77
2023/02/24 01:39:09;;;;;;;8.20;3.80;;;;;;;;;;4881791;29;20033;-79
2023/02/24 01:41:37;;;;;;;12.52;4.60;;;;;;;;;;4889798;29;20484;-78
2023/02/24 01:44:08;;;;;;;8.63;4.30;;;;;;;;;;4868938;29;20493;-78
2023/02/24 01:46:38;;;;;;;10.13;4.13;;;;;;;;;;4865339;29;20033;-78
2023/02/24 01:49:07;;;;;;;9.23;4.88;;;;;;;;;;4882043;29;20025;-77
2023/02/24 01:51:43;;;;;;;11.93;4.55;;;;;;;;;;4868786;29;20122;-78
2023/02/24 01:54:11;;;;;;;12.75;4.30;;;;;;;;;;4870082;29;20036;-78
2023/02/24 01:56:40;;;;;;;13.45;4.30;;;;;;;;;;4871412;29;20084;-77
2023/02/24 01:59:07;;;;;;;22.80;4.93;;;;;;;;;;4869188;29;20039;-78
2023/02/24 02:01:39;;;;;;;10.13;3.78;;;;;;;;;;4872117;29;20028;-78
2023/02/24 02:04:09;;;;;;;12.20;4.25;;;;;;;;;;4873000;29;20021;-80
2023/02/24 02:06:35;;;;;;;8.65;4.10;;;;;;;;;;4877664;29;20021;-77
2023/02/24 02:09:02;;;;;;;7.80;4.05;;;;;;;;;;4870747;29;20032;-78
2023/02/24 02:11:28;;;;;;;7.43;4.20;;;;;;;;;;4871117;29;20040;-77
2023/02/24 02:13:55;;;;;;;10.68;4.53;;;;;;;;;;4872228;29;20017;-78
2023/02/24 02:16:24;;;;;;;11.63;3.92;;;;;;;;;;4878952;29;20017;-78
2023/02/24 02:19:09;;;;;;;8.60;3.72;;;;;;;;;;4869617;29;20029;-77
2023/02/24 02:21:43;;;;;;;8.50;4.65;;;;;;;;;;4864239;29;20044;-78
2023/02/24 02:24:10;;;;;;;9.63;3.97;;;;;;;;;;4879859;29;20061;-78
2023/02/24 02:26:56;;;;;;;10.35;4.15;;;;;;;;;;4883291;29;20638;-76
2023/02/24 02:29:34;;;;;;;10.65;3.85;;;;;;;;;;4881894;29;20118;-77
2023/02/24 02:32:30;;;;;;;6.57;5.50;;;;;;;;;;4887220;29;20024;-76
2023/02/24 02:34:58;;;;;;;12.25;4.00;;;;;;;;;;4874035;29;20044;-77
2023/02/24 02:37:43;;;;;;;10.82;3.85;;;;;;;;;;4869394;29;20104;-77
2023/02/24 02:40:20;;;;;;;11.15;3.72;;;;;;;;;;4875934;29;20029;-77
2023/02/24 02:42:46;;;;;;;10.27;3.70;;;;;;;;;;4881640;29;20039;-78
2023/02/24 02:45:16;;;;;;;6.75;3.55;;;;;;;;;;4874383;29;20021;-78
2023/02/24 02:47:42;;;;;;;10.88;3.72;;;;;;;;;;4868945;29;20030;-76
2023/02/24 02:50:21;;;;;;;10.75;4.45;;;;;;;;;;4857159;29;20021;-76
2023/02/24 02:52:57;;;;;;;13.65;4.40;;;;;;;;;;4863420;29;20029;-78
2023/02/24 02:55:35;;;;;;;14.35;5.30;;;;;;;;;;4869037;29;20112;-77
2023/02/24 02:58:03;;;;;;;9.13;4.47;;;;;;;;;;4887616;29;20033;-77
2023/02/24 03:00:36;;;;;;;8.27;3.60;;;;;;;;;;4877760;29;20066;-77
2023/02/24 03:03:13;;;;;;;11.77;4.55;;;;;;;;;;4886696;29;20036;-77
2023/02/24 03:06:06;;;;;;;12.38;3.92;;;;;;;;;;4872801;29;20033;-77
2023/02/24 03:08:36;;;;;;;14.43;4.38;;;;;;;;;;4867643;29;20047;-76
2023/02/24 03:11:04;;;;;;;11.10;3.53;;;;;;;;;;4877203;29;20068;-76
2023/02/24 03:13:33;;;;;;;8.05;4.82;;;;;;;;;;4886664;29;20035;-78
2023/02/24 03:16:03;;;;;;;13.70;4.32;;;;;;;;;;4871958;29;20056;-78
2023/02/24 03:18:33;;;;;;;7.88;3.95;;;;;;;;;;4861427;29;20041;-77
2023/02/24 03:21:06;;;;;;;10.52;4.68;;;;;;;;;;4877734;29;20033;-78
2023/02/24 03:23:35;;;;;;;8.55;3.85;;;;;;;;;;4857268;29;20032;-77
2023/02/24 03:26:02;;;;;;;16.25;4.88;;;;;;;;;;4872010;29;20040;-77
2023/02/24 03:28:36;;;;;;;8.93;4.45;;;;;;;;;;4876306;29;20411;-77
2023/02/24 03:31:06;;;;;;;19.58;4.65;;;;;;;;;;4874779;29;20048;-76
2023/02/24 03:33:35;;;;;;;8.63;3.40;;;;;;;;;;4879472;29;20037;-77
2023/02/24 03:36:01;;;;;;;10.45;5.45;;;;;;;;;;4871578;29;20492;-77
2023/02/24 03:38:30;;;;;;;11.98;4.93;;;;;;;;;;4866666;29;20512;-77
2023/02/24 03:40:57;;;;;;;9.70;3.53;;;;;;;;;;4877476;29;20053;-78
2023/02/24 03:43:26;;;;;;;9.55;4.63;;;;;;;;;;4872101;29;20033;-79
2023/02/24 03:45:54;;;;;;;12.35;4.70;;;;;;;;;;4873872;29;20060;-76
2023/02/24 03:48:20;;;;;;;13.27;3.92;;;;;;;;;;4877148;29;20432;-77
2023/02/24 03:50:46;;;;;;;10.77;3.63;;;;;;;;;;4872500;29;20029;-77
2023/02/24 03:53:29;;;;;;;12.32;4.07;;;;;;;;;;4875935;29;20081;-77
2023/02/24 03:56:14;;;;;;;15.10;5.53;;;;;;;;;;4869772;29;20017;-77
2023/02/24 03:58:59;;;;;;;16.88;4.47;;;;;;;;;;4872005;29;20441;-78
2023/02/24 04:01:37;;;;;;;12.57;3.88;;;;;;;;;;4879950;29;20042;-80
2023/02/24 04:04:11;;;;;;;17.15;4.93;;;;;;;;;;4867020;29;20060;-77
2023/02/24 04:06:48;;;;;;;11.32;4.13;;;;;;;;;;4864308;29;20074;-76
2023/02/24 04:09:24;;;;;;;12.65;4.05;;;;;;;;;;4880034;29;20021;-77
2023/02/24 04:11:49;;;;;;;;;;;;;;;;;;4872246;29;20036;-77
2023/02/24 04:14:23;;;;;;;11.05;3.78;;;;;;;;;;4864702;29;19915;-78
2023/02/24 04:17:02;;;;;;;11.23;4.15;;;;;;;;;;4869226;29;20025;-78
2023/02/24 04:19:30;;;;;;;9.65;3.92;;;;;;;;;;4853412;29;20485;-77
2023/02/24 04:21:56;;;;;;;8.55;4.60;;;;;;;;;;4869963;29;20037;-78
2023/02/24 04:24:27;;;;;;;12.65;4.00;;;;;;;;;;4861619;29;20049;-79
2023/02/24 04:26:53;;;;;;;12.40;4.32;;;;;;;;;;4863907;29;20108;-77
2023/02/24 04:29:21;;;;;;;12.20;4.55;;;;;;;;;;4866958;29;20591;-79
2023/02/24 04:31:49;;;;;;;14.20;4.25;;;;;;;;;;4857645;29;20022;-77
2023/02/24 04:34:18;;;;;;;13.65;4.18;;;;;;;;;;4863819;29;20113;-77
2023/02/24 04:36:48;;;;;;;8.95;3.80;;;;;;;;;;4867349;29;20132;-76
2023/02/24 04:39:22;;;;;;;18.30;4.40;;;;;;;;;;4877618;29;20484;-76
2023/02/24 04:41:48;;;;;;;16.30;5.25;;;;;;;;;;4873063;29;20448;-76
2023/02/24 04:44:18;;;;;;;10.57;4.53;;;;;;;;;;4870978;29;20029;-77
2023/02/24 04:46:51;;;;;;;9.80;3.85;;;;;;;;;;4870244;29;20061;-78
2023/02/24 04:49:18;;;;;;;11.13;3.78;;;;;;;;;;4868065;29;20026;-78
2023/02/24 04:51:44;;;;;;;12.50;3.97;;;;;;;;;;4854088;29;20033;-78
2023/02/24 04:54:14;;;;;;;17.15;5.00;;;;;;;;;;4876303;29;20625;-79
2023/02/24 04:56:40;;;;;;;15.23;4.32;;;;;;;;;;4864000;29;20076;-77
2023/02/24 04:59:09;;;;;;;13.02;5.80;;;;;;;;;;4868627;29;20077;-77
2023/02/24 05:01:38;;;;;;;15.32;3.67;;;;;;;;;;4856743;29;20025;-76
2023/02/24 05:04:05;;;;;;;8.48;4.00;;;;;;;;;;4856766;29;20026;-77
2023/02/24 05:06:31;;;;;;;12.88;4.57;;;;;;;;;;4871834;29;20040;-77
2023/02/24 05:08:58;;;;;;;13.18;4.78;;;;;;;;;;4875801;29;20057;-77
2023/02/24 05:11:33;;;;;;;8.90;4.75;;;;;;;;;;4867755;29;20037;-77
2023/02/24 05:14:00;;;;;;;14.70;3.85;;;;;;;;;;4870201;29;20021;-77
2023/02/24 05:16:27;;;;;;;10.77;3.65;;;;;;;;;;4880425;29;20021;-77
2023/02/24 05:21:34;;;;;;;13.35;4.15;;;;;;;;;;4877293;29;20488;-77
2023/02/24 05:21:40;;;;;;;12.10;4.35;;;;;;;;;;4886694;29;20391;-78
2023/02/24 05:24:07;;;;;;;12.77;4.15;;;;;;;;;;4878230;29;20108;-77
2023/02/24 05:26:37;;;;;;;14.60;4.45;;;;;;;;;;4867469;29;20040;-77
2023/02/24 05:29:04;;;;;;;15.73;4.95;;;;;;;;;;4871218;29;20155;-77
2023/02/24 05:31:31;;;;;;;14.77;3.67;;;;;;;;;;4874656;29;20056;-77
2023/02/24 05:33:58;;;;;;;16.85;4.50;;;;;;;;;;4875804;29;20078;-77
2023/02/24 05:36:25;;;;;;;10.38;4.18;;;;;;;;;;4873163;29;20029;-77
2023/02/24 05:39:05;;;;;;;19.92;4.50;;;;;;;;;;4879017;29;20029;-78
2023/02/24 05:41:34;;;;;;;11.23;3.65;;;;;;;;;;4871141;29;20025;-78
2023/02/24 05:44:03;;;;;;;16.40;4.22;;;;;;;;;;4862868;29;20028;-75
2023/02/24 05:46:31;;;;;;;13.95;5.10;;;;;;;;;;4867525;29;20504;-76
2023/02/24 05:49:02;;;;;;;13.10;4.35;;;;;;;;;;4875989;29;20189;-78
2023/02/24 05:51:42;;;;;;;12.20;4.43;;;;;;;;;;4880933;29;20035;-77
2023/02/24 05:54:09;;;;;;;13.43;3.58;;;;;;;;;;4880801;29;20029;-75
2023/02/24 05:56:37;;;;;;;17.38;3.97;;;;;;;;;;4878018;29;20057;-80
2023/02/24 05:59:06;;;;;;;6.93;3.85;;;;;;;;;;4876121;29;20025;-79
2023/02/24 06:01:33;;;;;;;18.95;4.32;;;;;;;;;;4866743;29;20043;-76
2023/02/24 06:04:04;;;;;;;15.43;5.05;;;;;;;;;;4872142;29;20175;-77
2023/02/24 06:06:36;;;;;;;11.38;4.55;;;;;;;;;;4885358;29;20025;-78
2023/02/24 06:09:08;;;;;;;14.63;3.58;;;;;;;;;;4872225;29;20055;-77
2023/02/24 06:11:34;;;;;;;15.38;3.95;;;;;;;;;;4881207;29;20108;-76
2023/02/24 06:14:01;;;;;;;10.68;4.00;;;;;;;;;;4862724;29;20029;-77
2023/02/24 06:16:28;;;;;;;14.68;5.70;;;;;;;;;;4869929;29;20033;-77
2023/02/24 06:18:57;;;;;;;19.60;4.13;;;;;;;;;;4882012;29;20026;-76
2023/02/24 06:21:28;;;;;;;10.25;3.30;;;;;;;;;;4872927;29;20028;-77
2023/02/24 06:23:54;;;;;;;15.07;3.95;;;;;;;;;;4871245;29;20028;-78
2023/02/24 06:26:20;;;;;;;10.15;3.40;;;;;;;;;;4877941;29;20033;-76
2023/02/24 06:28:48;;;;;;;13.00;3.72;;;;;;;;;;4876219;29;20520;-77
2023/02/24 06:31:14;;;;;;;11.32;4.13;;;;;;;;;;4864614;29;20033;-76
2023/02/24 06:33:42;;;;;;;18.75;4.50;;;;;;;;;;4872675;29;20053;-77
2023/02/24 06:36:08;;;;;;;15.95;3.58;;;;;;;;;;4872607;29;20029;-77
2023/02/24 06:38:35;;;;;;;24.95;4.07;;;;;;;;;;4872659;29;20028;-78
2023/02/24 06:41:03;;;;;;;11.80;3.60;;;;;;;;;;4871719;29;20036;-78
2023/02/24 06:43:32;;;;;;;14.82;3.92;;;;;;;;;;4867256;29;20024;-76
2023/02/24 06:45:58;;;;;;;16.52;4.65;;;;;;;;;;4878761;29;20029;-79
2023/02/24 06:48:24;;;;;;;18.17;4.32;;;;;;;;;;4882969;29;20056;-75
2023/02/24 06:50:50;;;;;;;8.55;3.30;;;;;;;;;;4881044;29;20028;-77
2023/02/24 06:53:17;;;;;;;11.27;3.58;;;;;;;;;;4885541;29;20021;-75
2023/02/24 06:55:45;;;;;;;9.57;3.55;;;;;;;;;;4882025;29;20078;-76
2023/02/24 06:58:15;;;;;;;16.48;4.07;;;;;;;;;;4890758;29;20061;-78
2023/02/24 07:00:44;;;;;;;13.60;3.85;;;;;;;;;;4887145;29;20040;-77
2023/02/24 07:03:14;;;;;;;12.55;3.75;;;;;;;;;;4891468;29;20765;-76
2023/02/24 07:05:53;;;;;;;14.73;4.00;;;;;;;;;;4887223;29;20037;-78
2023/02/24 07:08:28;;;;;;;10.10;4.40;;;;;;;;;;4868720;29;20068;-78
2023/02/24 07:10:54;;;;;;;;;;;;;;;;;;4886981;29;20029;-76
2023/02/24 07:13:21;;;;;;;8.65;3.90;;;;;;;;;;4895990;29;19920;-78
2023/02/24 07:15:48;;;;;;;15.10;3.83;;;;;;;;;;4873428;29;20524;-77
2023/02/24 07:18:18;;;;;;;16.60;4.38;;;;;;;;;;4891442;29;20090;-77
2023/02/24 07:20:45;;;;;;;10.38;3.80;;;;;;;;;;4886886;29;20036;-77
2023/02/24 07:23:15;;;;;;;13.55;4.03;;;;;;;;;;4885260;29;20036;-78
2023/02/24 07:25:42;;;;;;;14.25;4.10;;;;;;;;;;4891901;29;20029;-77
2023/02/24 07:28:09;;;;;;;14.20;5.63;;;;;;;;;;4895256;29;20033;-77
2023/02/24 07:30:37;;;;;;;13.27;3.63;;;;;;;;;;4888782;29;20045;-77
2023/02/24 07:33:03;;;;;;;10.93;4.13;;;;;;;;;;4894508;29;20080;-76
2023/02/24 07:35:30;;;;;;;17.60;3.78;;;;;;;;;;4887798;29;20028;-78
2023/02/24 07:38:00;;;;;;;9.05;3.15;;;;;;;;;;4905134;29;20029;-77
2023/02/24 07:40:32;;;;;;;15.27;4.20;;;;;;;;;;4868781;29;20031;-79
2023/02/24 07:42:58;;;;;;;9.18;3.17;;;;;;;;;;4876517;29;20033;-77
2023/02/24 07:45:24;;;;;;;11.50;4.55;;;;;;;;;;4894520;29;20033;-77
2023/02/24 07:47:50;;;;;;;16.02;3.80;;;;;;;;;;4895956;29;20113;-79
2023/02/24 07:50:17;;;;;;;16.20;3.83;;;;;;;;;;4884234;29;20021;-77
2023/02/24 07:52:46;;;;;;;11.73;3.00;;;;;;;;;;4848179;29;20400;-78
2023/02/24 07:55:14;;;;;;;9.32;3.70;;;;;;;;;;4880044;29;20041;-77
2023/02/24 07:57:45;;;;;;;9.02;3.15;;;;;;;;;;4892328;29;20028;-78
2023/02/24 08:00:18;;;;;;;11.10;5.03;;;;;;;;;;4884689;29;20104;-79
2023/02/24 08:02:48;;;;;;;16.15;3.92;;;;;;;;;;4888906;29;20084;-79
2023/02/24 08:05:16;;;;;;;12.77;4.28;;;;;;;;;;4888294;29;20093;-78
2023/02/24 08:07:42;;;;;;;18.02;3.22;;;;;;;;;;4889147;29;20496;-79
2023/02/24 08:10:23;;;;;;;12.50;3.22;;;;;;;;;;4884264;29;20095;-78
2023/02/24 08:12:53;;;;;;;11.52;3.85;;;;;;;;;;4902554;29;20065;-80
2023/02/24 08:15:23;;;;;;;11.93;3.75;;;;;;;;;;4897186;29;20067;-77
2023/02/24 08:17:53;;;;;;;14.10;3.40;;;;;;;;;;4889789;29;20029;-78
2023/02/24 08:20:20;;;;;;;16.42;3.53;;;;;;;;;;4889892;29;20041;-77
2023/02/24 08:22:50;;;;;;;12.40;3.40;;;;;;;;;;4890911;29;20029;-77
2023/02/24 08:25:17;;;;;;;11.27;3.33;;;;;;;;;;4876968;29;20757;-76
2023/02/24 08:27:44;;;;;;;10.60;3.25;;;;;;;;;;4892503;29;20034;-78
2023/02/24 08:30:23;;;;;;;10.32;3.38;;;;;;;;;;4898365;29;20087;-77
2023/02/24 08:32:56;;;;;;;11.73;3.33;;;;;;;;;;4881057;29;20045;-77
2023/02/24 08:35:24;;;;;;;12.35;3.42;;;;;;;;;;4862287;29;20034;-76
2023/02/24 08:37:54;;;;;;;12.50;3.70;;;;;;;;;;4875922;29;20492;-79
2023/02/24 08:43:14;;;;;;;11.45;3.65;;;;;;;;;;4896614;29;20043;-77
2023/02/24 08:45:43;;;;;;;10.88;3.67;;;;;;;;;;4894090;29;20036;-77
2023/02/24 08:48:17;;;;;;;19.20;4.78;;;;;;;;;;4889391;29;20029;-80
2023/02/24 08:50:45;;;;;;;11.60;4.05;;;;;;;;;;4892219;29;20020;-77
2023/02/24 08:53:34;;;;;;;16.95;3.50;;;;;;;;;;4863033;29;20052;-75
2023/02/24 08:56:22;;;;;;;12.55;4.13;;;;;;;;;;4873567;29;20033;-77
2023/02/24 08:58:49;;;;;;;15.55;5.70;;;;;;;;;;4888489;29;20075;-76
2023/02/24 09:01:22;;;;;;;12.13;4.15;;;;;;;;;;4882613;29;20081;-77
2023/02/24 09:03:50;;;;;;;10.52;3.58;;;;;;;;;;4884632;29;20108;-77
2023/02/24 09:06:24;;;;;;;11.70;4.00;;;;;;;;;;4859696;29;20041;-77
2023/02/24 09:09:16;;;;;;;13.10;3.75;;;;;;;;;;4881423;29;20033;-76
2023/02/24 09:11:42;;;;;;;10.90;4.15;;;;;;;;;;4885650;29;20378;-78
2023/02/24 09:14:15;;;;;;;15.55;4.93;;;;;;;;;;4879531;29;20092;-77
2023/02/24 09:17:01;;;;;;;11.02;3.22;;;;;;;;;;4876209;29;20024;-77
2023/02/24 09:23:18;;;;;;;15.80;5.53;;;;;;;;;;4840735;29;20045;-77
2023/02/24 09:25:39;;;;;;;13.88;4.18;;;;;;;;;;4872181;29;20124;-79
2023/02/24 09:28:24;;;;;;;12.20;3.40;;;;;;;;;;4863158;29;20543;-78
2023/02/24 09:30:54;;;;;;;10.90;3.25;;;;;;;;;;4897826;29;20097;-76
2023/02/24 09:33:38;;;;;;;8.80;3.03;;;;;;;;;;4896183;29;20033;-78
2023/02/24 09:36:12;;;;;;;10.82;3.90;;;;;;;;;;4872341;29;20056;-81
2023/02/24 09:41:31;;;;;;;11.23;4.38;;;;;;;;;;4866132;29;20132;-78
2023/02/24 09:44:06;;;;;;;8.55;3.35;;;;;;;;;;4882130;29;20132;-79
2023/02/24 09:46:38;;;;;;;7.70;3.30;;;;;;;;;;4884624;29;20088;-78
2023/02/24 09:49:17;;;;;;;12.00;3.47;;;;;;;;;;4869085;29;20096;-78
2023/02/24 09:51:56;;;;;;;8.60;3.95;;;;;;;;;;4886773;29;20040;-77
2023/02/24 09:54:23;;;;;;;9.50;3.67;;;;;;;;;;4866308;29;20124;-76
2023/02/24 09:57:08;;;;;;;12.38;3.40;;;;;;;;;;4879889;29;20124;-80
2023/02/24 09:59:59;;;;;;;13.65;3.88;;;;;;;;;;4893301;29;20029;-76
2023/02/24 10:02:27;;;;;;;10.30;2.90;;;;;;;;;;4899952;29;20025;-76
2023/02/24 10:05:05;;;;;;;17.95;4.10;;;;;;;;;;4894287;29;20017;-75
2023/02/24 10:07:40;;;;;;;9.10;3.03;;;;;;;;;;4895726;29;20025;-75
2023/02/24 10:10:28;;;;;;;10.45;3.28;;;;;;;;;;4896753;29;20037;-76
2023/02/24 10:13:11;;;;;;;6.20;2.47;;;;;;;;;;4884363;29;20046;-75
2023/02/24 10:15:57;;;;;;;10.82;3.20;;;;;;;;;;5511573;23;20087;-81
2023/02/24 10:18:26;;;;;;;;;;;;;;;;;;4920890;29;20052;-83
2023/02/24 10:21:15;;;;;;;6.90;2.80;;;;;;;;;;5509545;23;19934;-79
2023/02/24 10:23:43;;;;;;;10.82;3.42;;;;;;;;;;4902776;29;20108;-81
2023/02/24 10:26:45;;;;;;;10.50;3.65;;;;;;;;;;4930624;29;20032;-78
2023/02/24 10:29:28;;;;;;;13.77;3.63;;;;;;;;;;4909652;29;20578;-78
2023/02/24 10:32:05;;;;;;;17.30;4.28;;;;;;;;;;4913038;29;20062;-77
2023/02/24 10:34:34;;;;;;;8.63;3.83;;;;;;;;;;4918213;29;20020;-78
2023/02/24 10:37:11;;;;;;;11.80;3.35;;;;;;;;;;4918804;29;20032;-78
2023/02/24 10:39:42;;;;;;;10.98;3.58;;;;;;;;;;4906369;29;20021;-79
2023/02/24 10:42:15;;;;;;;6.55;3.50;;;;;;;;;;4898763;29;20179;-78
2023/02/24 10:45:10;;;;;;;7.72;2.95;;;;;;;;;;4915067;29;20031;-79
2023/02/24 10:47:34;;;;;;;8.45;2.72;;;;;;;;;;4905291;29;20108;-78
2023/02/24 10:50:11;;;;;;;6.82;3.17;;;;;;;;;;4895706;29;20056;-76
2023/02/24 10:58:26;;;;;;;10.07;3.03;;;;;;;;;;4910126;29;20065;-79
2023/02/24 11:03:35;;;;;;;5.57;4.10;;;;;;;;;;4908951;29;20027;-78
2023/02/24 11:17:13;;;;;;;6.55;2.80;;;;;;;;;;4902178;29;20088;-77
2023/02/24 11:17:16;;;;;;;8.38;3.05;;;;;;;;;;4894453;29;20048;-78
2023/02/24 11:19:44;;;;;;;9.57;2.90;;;;;;;;;;4896020;29;20115;-77
2023/02/24 11:22:14;;;;;;;4.90;2.88;;;;;;;;;;4873281;29;20048;-79
2023/02/24 11:24:40;;;;;;;13.23;2.92;;;;;;;;;;4894836;29;20036;-79
2023/02/24 11:27:07;;;;;;;13.00;3.78;;;;;;;;;;4898819;29;20095;-79
2023/02/24 11:29:42;;;;;;;6.05;2.78;;;;;;;;;;4880906;29;20494;-77
2023/02/24 11:32:12;;;;;;;7.85;3.17;;;;;;;;;;4882405;29;20036;-77
2023/02/24 11:34:38;;;;;;;6.32;2.80;;;;;;;;;;4889541;29;20566;-78
2023/02/24 11:37:13;;;;;;;8.18;2.38;;;;;;;;;;4877049;29;20499;-78
2023/02/24 11:39:42;;;;;;;5.80;2.47;;;;;;;;;;4872443;29;20065;-77
2023/02/24 11:42:13;;;;;;;8.80;3.60;;;;;;;;;;4888866;29;20265;-77
2023/02/24 11:45:01;;;;;;;5.07;2.42;;;;;;;;;;4893388;29;20121;-77
2023/02/24 11:47:32;;;;;;;10.40;3.00;;;;;;;;;;4885406;29;20021;-77
2023/02/24 11:50:16;;;;;;;8.60;3.38;;;;;;;;;;4888364;29;20033;-77
2023/02/24 11:52:45;;;;;;;18.67;6.97;;;;;;;;;;4889761;29;20029;-77
2023/02/24 11:55:24;;;;;;;38.85;19.70;;;;;;;;;;4864313;29;20904;-78
2023/02/24 11:57:53;;;;;;;10.43;6.82;;;;;;;;;;4870923;29;20396;-78
2023/02/24 12:00:21;;;;;;;49.95;32.05;;;;;;;;;;4867462;29;20680;-78
2023/02/24 12:02:52;;;;;;;27.40;12.43;;;;;;;;;;4876651;29;20036;-77
2023/02/24 12:05:21;;;;;;;15.20;7.18;;;;;;;;;;4871171;29;20620;-77
2023/02/24 12:07:49;;;;;;;12.32;6.03;;;;;;;;;;4876829;29;20044;-78
2023/02/24 12:10:30;;;;;;;13.73;7.88;;;;;;;;;;4873678;29;20061;-77
2023/02/24 12:13:08;;;;;;;15.77;10.73;;;;;;;;;;4884774;29;20089;-76
2023/02/24 12:15:50;;;;;;;11.32;6.97;;;;;;;;;;4893487;29;20036;-77
2023/02/24 12:18:16;;;;;;;16.38;8.68;;;;;;;;;;4863356;29;20036;-77
2023/02/24 12:20:48;;;;;;;23.20;11.32;;;;;;;;;;4894353;29;20068;-80
2023/02/24 12:23:16;;;;;;;16.48;9.60;;;;;;;;;;4913704;29;20154;-77
2023/02/24 12:26:07;;;;;;;51.72;28.15;;;;;;;;;;4907902;29;20024;-78
2023/02/24 12:28:48;;;;;;;22.15;13.10;;;;;;;;;;4905294;29;20064;-77
2023/02/24 12:31:25;;;;;;;24.75;14.10;;;;;;;;;;4909438;29;20075;-81
2023/02/24 12:33:54;;;;;;;24.33;13.15;;;;;;;;;;4900189;29;20020;-78
2023/02/24 12:36:25;;;;;;;25.60;14.82;;;;;;;;;;4916357;29;20032;-79
2023/02/24 12:38:51;;;;;;;12.55;6.88;;;;;;;;;;4921693;29;20750;-79
2023/02/24 12:41:36;;;;;;;11.40;5.60;;;;;;;;;;4911898;29;20039;-76
2023/02/24 12:44:08;;;;;;;6.25;4.45;;;;;;;;;;4917470;29;20033;-78
2023/02/24 12:46:39;;;;;;;11.80;6.22;;;;;;;;;;4896815;29;20033;-77
2023/02/24 12:49:11;;;;;;;11.35;7.13;;;;;;;;;;4906315;29;20028;-78
2023/02/24 12:51:49;;;;;;;13.23;7.82;;;;;;;;;;4922089;29;20054;-78
2023/02/24 12:54:28;;;;;;;13.27;6.80;;;;;;;;;;4916444;29;20020;-78
2023/02/24 12:57:12;;;;;;;10.32;5.55;;;;;;;;;;4917035;29;20024;-78
2023/02/24 12:59:40;;;;;;;10.45;5.78;;;;;;;;;;4919760;29;20884;-77
2023/02/24 13:02:22;;;;;;;7.68;4.63;;;;;;;;;;4926998;29;20107;-78
2023/02/24 13:04:54;;;;;;;9.00;4.95;;;;;;;;;;4933371;29;20034;-77
2023/02/24 13:07:34;;;;;;;11.60;6.05;;;;;;;;;;4915625;29;20036;-77
2023/02/24 13:10:20;;;;;;;9.52;5.47;;;;;;;;;;4912762;29;20040;-78
2023/02/24 13:12:53;;;;;;;7.65;5.07;;;;;;;;;;4892305;29;20023;-77
2023/02/24 13:15:21;;;;;;;5.82;3.38;;;;;;;;;;4929123;29;20034;-79
2023/02/24 13:17:49;;;;;;;9.32;4.72;;;;;;;;;;4930911;29;20044;-78
2023/02/24 13:20:28;;;;;;;10.55;4.20;;;;;;;;;;4921926;29;20079;-80
2023/02/24 13:22:54;;;;;;;10.57;3.80;;;;;;;;;;4926670;29;20036;-78
2023/02/24 13:25:22;;;;;;;9.75;3.13;;;;;;;;;;4926890;29;20027;-78
2023/02/24 13:28:02;;;;;;;5.65;3.22;;;;;;;;;;4935750;29;20421;-78
2023/02/24 13:30:40;;;;;;;17.58;6.63;;;;;;;;;;4903517;29;20029;-78
2023/02/24 13:33:19;;;;;;;11.55;3.65;;;;;;;;;;4911626;29;20038;-77
2023/02/24 13:35:46;;;;;;;5.50;3.30;;;;;;;;;;4904933;29;20032;-77
2023/02/24 13:41:24;;;;;;;7.60;3.22;;;;;;;;;;4885014;29;20052;-79
2023/02/24 13:43:58;;;;;;;7.40;3.00;;;;;;;;;;4912330;29;20033;-77
2023/02/24 13:46:25;;;;;;;11.95;3.97;;;;;;;;;;4893136;29;20037;-78
2023/02/24 13:49:10;;;;;;;7.85;3.75;;;;;;;;;;4904065;29;20032;-79
2023/02/24 13:51:39;;;;;;;5.68;3.13;;;;;;;;;;4899507;29;20028;-78
2023/02/24 13:54:24;;;;;;;10.75;3.53;;;;;;;;;;4903264;29;20392;-78
2023/02/24 13:57:21;;;;;;;7.17;2.90;;;;;;;;;;4888892;29;20028;-78
2023/02/24 13:59:53;;;;;;;7.43;3.42;;;;;;;;;;4895774;29;20033;-78
2023/02/24 14:02:20;;;;;;;6.20;3.60;;;;;;;;;;4892326;29;20109;-79
2023/02/24 14:04:56;;;;;;;6.38;4.43;;;;;;;;;;4899158;29;20017;-77
2023/02/24 14:07:24;;;;;;;6.30;4.22;;;;;;;;;;4890893;29;20091;-79
2023/02/24 14:09:52;;;;;;;10.23;5.20;;;;;;;;;;4894855;29;20028;-78
2023/02/24 14:12:20;;;;;;;7.40;3.55;;;;;;;;;;4906669;29;20036;-76
2023/02/24 14:14:47;;;;;;;6.60;3.28;;;;;;;;;;4925203;29;20020;-76
2023/02/24 14:17:27;;;;;;;4.32;2.80;;;;;;;;;;4910526;23;20421;-80
2023/02/24 14:19:54;;;;;;;5.80;2.88;;;;;;;;;;4899955;29;20418;-79
2023/02/24 14:22:21;;;;;;;7.15;3.22;;;;;;;;;;4887225;29;20055;-81
2023/02/24 14:24:47;;;;;;;5.07;2.42;;;;;;;;;;4891976;29;20052;-80
2023/02/24 14:27:31;;;;;;;5.18;2.38;;;;;;;;;;4891056;29;20040;-82
2023/02/24 14:29:59;;;;;;;4.38;2.83;;;;;;;;;;4888998;29;20029;-81
2023/02/24 14:32:38;;;;;;;5.43;2.53;;;;;;;;;;4905258;29;20029;-84
2023/02/24 14:35:26;;;;;;;8.82;4.55;;;;;;;;;;4919970;29;20039;-87
2023/02/24 14:38:21;;;;;;;6.82;3.35;;;;;;;;;;4914655;29;20080;-86
2023/02/24 14:40:47;;;;;;;6.72;4.05;;;;;;;;;;4926516;29;20035;-84
2023/02/24 14:43:15;;;;;;;10.45;5.68;;;;;;;;;;4916497;29;20060;-85
2023/02/24 14:46:04;;;;;;;5.32;2.88;;;;;;;;;;4916897;29;20025;-86
2023/02/24 14:48:38;;;;;;;6.00;2.40;;;;;;;;;;4918929;29;20020;-85
2023/02/24 14:51:04;;;;;;;8.50;2.38;;;;;;;;;;4914600;29;20036;-82
2023/02/24 14:53:32;;;;;;;8.77;2.80;;;;;;;;;;4917762;29;20032;-84
2023/02/24 14:56:03;;;;;;;5.53;2.80;;;;;;;;;;4920639;29;20044;-85
2023/02/24 14:58:55;;;;;;;5.63;2.80;;;;;;;;;;4924999;29;20023;-85
2023/02/24 15:01:26;;;;;;;5.57;2.45;;;;;;;;;;4911596;29;20033;-83
2023/02/24 15:03:59;;;;;;;7.20;3.85;;;;;;;;;;4921634;29;20056;-82
2023/02/24 15:09:03;;;;;;;9.43;3.00;;;;;;;;;;4922655;23;20089;-76
2023/02/24 15:11:30;;;;;;;14.77;8.50;;;;;;;;;;4904390;29;20024;-78
2023/02/24 15:13:59;;;;;;;10.13;6.20;;;;;;;;;;4904871;29;20040;-79
2023/02/24 15:16:28;;;;;;;9.73;7.22;;;;;;;;;;4899836;29;20053;-77
2023/02/24 15:18:58;;;;;;;10.40;6.32;;;;;;;;;;4897117;29;20053;-78
2023/02/24 15:21:29;;;;;;;14.88;8.68;;;;;;;;;;4895952;29;20028;-77
2023/02/24 15:24:01;;;;;;;13.85;8.45;;;;;;;;;;4896139;29;20084;-78
2023/02/24 15:26:29;;;;;;;11.48;6.78;;;;;;;;;;4887103;29;20033;-78
2023/02/24 15:29:03;;;;;;;16.85;8.07;;;;;;;;;;4881424;29;20039;-79
2023/02/24 15:31:30;;;;;;;12.45;6.05;;;;;;;;;;4890049;29;20029;-79
2023/02/24 15:33:59;;;;;;;17.40;7.53;;;;;;;;;;4885533;29;20048;-77